sensor_id;sensor_type;location;lat;lon;timestamp;P1;durP1;ratioP1;P2;durP2;ratioP2
51616;SDS011;37697;52.588;13.394;2023-05-07T00:00:59;11.20;;;9.40;;
51616;SDS011;37697;52.588;13.394;2023-05-07T00:06:05;11.40;;;9.50;;
51616;SDS011;37697;52.588;13.394;2023-05-07T00:11:10;14.20;;;10.10;;
51616;SDS011;37697;52.588;13.394;2023-05-07T00:16:15;15.70;;;11.20;;
51616;SDS011;37697;52.588;13.394;2023-05-07T00:21:21;13.10;;;10.70;;
51616;SDS011;37697;52.588;13.394;2023-05-07T00:26:30;11.80;;;9.70;;
51616;SDS011;37697;52.588;13.394;2023-05-07T00:31:35;12.80;;;9.80;;
51616;SDS011;37697;52.588;13.394;2023-05-07T00:36:41;12.80;;;10.70;;
51616;SDS011;37697;52.588;13.394;2023-05-07T00:41:46;11.30;;;9.80;;
51616;SDS011;37697;52.588;13.394;2023-05-07T00:46:51;13.20;;;9.70;;
51616;SDS011;37697;52.588;13.394;2023-05-07T00:51:58;11.90;;;10.10;;
51616;SDS011;37697;52.588;13.394;2023-05-07T00:57:04;12.30;;;10.00;;
51616;SDS011;37697;52.588;13.394;2023-05-07T01:02:10;11.40;;;9.80;;
51616;SDS011;37697;52.588;13.394;2023-05-07T01:07:16;11.40;;;10.00;;
51616;SDS011;37697;52.588;13.394;2023-05-07T01:12:22;11.90;;;10.40;;
51616;SDS011;37697;52.588;13.394;2023-05-07T01:17:28;12.10;;;9.50;;
51616;SDS011;37697;52.588;13.394;2023-05-07T01:22:37;14.30;;;10.30;;
51616;SDS011;37697;52.588;13.394;2023-05-07T01:27:42;10.40;;;8.70;;
51616;SDS011;37697;52.588;13.394;2023-05-07T01:32:49;15.70;;;10.70;;
51616;SDS011;37697;52.588;13.394;2023-05-07T01:38:00;13.30;;;9.50;;
51616;SDS011;37697;52.588;13.394;2023-05-07T01:43:08;12.10;;;9.60;;
51616;SDS011;37697;52.588;13.394;2023-05-07T01:48:14;12.60;;;9.00;;
51616;SDS011;37697;52.588;13.394;2023-05-07T01:53:21;11.60;;;9.10;;
51616;SDS011;37697;52.588;13.394;2023-05-07T01:58:26;9.30;;;7.40;;
51616;SDS011;37697;52.588;13.394;2023-05-07T02:03:32;12.10;;;9.40;;
51616;SDS011;37697;52.588;13.394;2023-05-07T02:08:37;13.50;;;9.50;;
51616;SDS011;37697;52.588;13.394;2023-05-07T02:13:43;11.80;;;9.10;;
51616;SDS011;37697;52.588;13.394;2023-05-07T02:18:48;11.90;;;9.10;;
51616;SDS011;37697;52.588;13.394;2023-05-07T02:23:54;13.40;;;9.20;;
51616;SDS011;37697;52.588;13.394;2023-05-07T02:28:59;9.90;;;8.40;;
51616;SDS011;37697;52.588;13.394;2023-05-07T02:34:05;11.60;;;8.10;;
51616;SDS011;37697;52.588;13.394;2023-05-07T02:39:10;12.30;;;9.00;;
51616;SDS011;37697;52.588;13.394;2023-05-07T02:44:16;10.00;;;8.50;;
51616;SDS011;37697;52.588;13.394;2023-05-07T02:49:21;9.50;;;7.90;;
51616;SDS011;37697;52.588;13.394;2023-05-07T02:54:27;10.30;;;8.30;;
51616;SDS011;37697;52.588;13.394;2023-05-07T02:59:32;9.70;;;7.60;;
51616;SDS011;37697;52.588;13.394;2023-05-07T03:04:38;9.20;;;7.80;;
51616;SDS011;37697;52.588;13.394;2023-05-07T03:09:43;8.80;;;7.30;;
51616;SDS011;37697;52.588;13.394;2023-05-07T03:14:49;8.50;;;7.40;;
51616;SDS011;37697;52.588;13.394;2023-05-07T03:19:54;9.00;;;7.60;;
51616;SDS011;37697;52.588;13.394;2023-05-07T03:24:59;15.10;;;9.80;;
51616;SDS011;37697;52.588;13.394;2023-05-07T03:30:06;9.60;;;8.00;;
51616;SDS011;37697;52.588;13.394;2023-05-07T03:35:13;9.60;;;6.90;;
51616;SDS011;37697;52.588;13.394;2023-05-07T03:40:19;10.20;;;8.50;;
51616;SDS011;37697;52.588;13.394;2023-05-07T03:45:25;9.60;;;7.40;;
51616;SDS011;37697;52.588;13.394;2023-05-07T03:50:30;8.70;;;7.10;;
51616;SDS011;37697;52.588;13.394;2023-05-07T03:55:35;8.60;;;6.60;;
51616;SDS011;37697;52.588;13.394;2023-05-07T04:00:41;8.20;;;6.60;;
51616;SDS011;37697;52.588;13.394;2023-05-07T04:05:47;8.40;;;5.90;;
51616;SDS011;37697;52.588;13.394;2023-05-07T04:10:55;11.80;;;6.70;;
51616;SDS011;37697;52.588;13.394;2023-05-07T04:16:02;9.10;;;6.90;;
51616;SDS011;37697;52.588;13.394;2023-05-07T04:21:14;10.10;;;6.50;;
51616;SDS011;37697;52.588;13.394;2023-05-07T04:26:21;8.90;;;6.50;;
51616;SDS011;37697;52.588;13.394;2023-05-07T04:31:27;8.50;;;7.00;;
51616;SDS011;37697;52.588;13.394;2023-05-07T04:36:34;9.10;;;6.50;;
51616;SDS011;37697;52.588;13.394;2023-05-07T04:41:40;7.10;;;6.30;;
51616;SDS011;37697;52.588;13.394;2023-05-07T04:46:46;9.70;;;6.70;;
51616;SDS011;37697;52.588;13.394;2023-05-07T04:51:51;7.60;;;6.10;;
51616;SDS011;37697;52.588;13.394;2023-05-07T04:56:56;9.60;;;6.60;;
51616;SDS011;37697;52.588;13.394;2023-05-07T05:02:02;10.70;;;6.30;;
51616;SDS011;37697;52.588;13.394;2023-05-07T05:07:08;8.70;;;6.50;;
51616;SDS011;37697;52.588;13.394;2023-05-07T05:12:13;8.30;;;5.90;;
51616;SDS011;37697;52.588;13.394;2023-05-07T05:17:19;9.20;;;6.40;;
51616;SDS011;37697;52.588;13.394;2023-05-07T05:22:24;8.90;;;6.50;;
51616;SDS011;37697;52.588;13.394;2023-05-07T05:27:30;7.90;;;5.30;;
51616;SDS011;37697;52.588;13.394;2023-05-07T05:32:35;8.00;;;5.60;;
51616;SDS011;37697;52.588;13.394;2023-05-07T05:37:41;6.70;;;6.00;;
51616;SDS011;37697;52.588;13.394;2023-05-07T05:42:46;6.70;;;5.60;;
51616;SDS011;37697;52.588;13.394;2023-05-07T05:47:52;7.50;;;5.80;;
51616;SDS011;37697;52.588;13.394;2023-05-07T05:52:59;8.80;;;6.60;;
51616;SDS011;37697;52.588;13.394;2023-05-07T05:58:05;6.70;;;5.60;;
51616;SDS011;37697;52.588;13.394;2023-05-07T06:03:10;7.80;;;6.10;;
51616;SDS011;37697;52.588;13.394;2023-05-07T06:08:17;8.60;;;5.90;;
51616;SDS011;37697;52.588;13.394;2023-05-07T06:13:23;8.50;;;6.00;;
51616;SDS011;37697;52.588;13.394;2023-05-07T06:18:29;7.10;;;6.10;;
51616;SDS011;37697;52.588;13.394;2023-05-07T06:23:35;9.80;;;5.80;;
51616;SDS011;37697;52.588;13.394;2023-05-07T06:28:40;7.40;;;6.00;;
51616;SDS011;37697;52.588;13.394;2023-05-07T06:33:46;7.10;;;5.50;;
51616;SDS011;37697;52.588;13.394;2023-05-07T06:38:52;7.70;;;5.50;;
51616;SDS011;37697;52.588;13.394;2023-05-07T06:43:57;7.40;;;5.20;;
51616;SDS011;37697;52.588;13.394;2023-05-07T06:49:03;8.10;;;5.10;;
51616;SDS011;37697;52.588;13.394;2023-05-07T06:54:08;7.10;;;5.20;;
51616;SDS011;37697;52.588;13.394;2023-05-07T06:59:14;6.20;;;5.00;;
51616;SDS011;37697;52.588;13.394;2023-05-07T07:04:19;6.20;;;4.50;;
51616;SDS011;37697;52.588;13.394;2023-05-07T07:09:26;6.90;;;5.00;;
51616;SDS011;37697;52.588;13.394;2023-05-07T07:14:32;6.00;;;4.60;;
51616;SDS011;37697;52.588;13.394;2023-05-07T07:19:37;6.90;;;4.30;;
51616;SDS011;37697;52.588;13.394;2023-05-07T07:24:43;4.60;;;3.70;;
51616;SDS011;37697;52.588;13.394;2023-05-07T07:29:48;5.60;;;4.00;;
51616;SDS011;37697;52.588;13.394;2023-05-07T07:34:54;4.80;;;3.60;;
51616;SDS011;37697;52.588;13.394;2023-05-07T07:39:59;6.00;;;4.00;;
51616;SDS011;37697;52.588;13.394;2023-05-07T07:45:06;5.70;;;3.30;;
51616;SDS011;37697;52.588;13.394;2023-05-07T07:50:14;5.50;;;3.60;;
51616;SDS011;37697;52.588;13.394;2023-05-07T07:55:39;4.80;;;3.60;;
51616;SDS011;37697;52.588;13.394;2023-05-07T08:00:45;4.40;;;3.00;;
51616;SDS011;37697;52.588;13.394;2023-05-07T08:05:51;4.00;;;3.00;;
51616;SDS011;37697;52.588;13.394;2023-05-07T08:10:56;3.70;;;2.40;;
51616;SDS011;37697;52.588;13.394;2023-05-07T08:16:02;3.90;;;2.60;;
51616;SDS011;37697;52.588;13.394;2023-05-07T08:21:07;4.70;;;2.50;;
51616;SDS011;37697;52.588;13.394;2023-05-07T08:26:13;4.00;;;2.40;;
51616;SDS011;37697;52.588;13.394;2023-05-07T08:31:19;4.70;;;2.50;;
51616;SDS011;37697;52.588;13.394;2023-05-07T08:36:24;4.30;;;2.20;;
51616;SDS011;37697;52.588;13.394;2023-05-07T08:41:29;3.50;;;2.50;;
51616;SDS011;37697;52.588;13.394;2023-05-07T08:46:35;5.00;;;2.40;;
51616;SDS011;37697;52.588;13.394;2023-05-07T08:51:41;6.00;;;2.60;;
51616;SDS011;37697;52.588;13.394;2023-05-07T08:56:47;4.10;;;2.30;;
51616;SDS011;37697;52.588;13.394;2023-05-07T09:01:52;3.20;;;2.20;;
51616;SDS011;37697;52.588;13.394;2023-05-07T09:06:58;3.50;;;2.20;;
51616;SDS011;37697;52.588;13.394;2023-05-07T09:12:09;3.40;;;2.00;;
51616;SDS011;37697;52.588;13.394;2023-05-07T09:17:14;3.90;;;2.30;;
51616;SDS011;37697;52.588;13.394;2023-05-07T09:22:25;3.70;;;2.10;;
51616;SDS011;37697;52.588;13.394;2023-05-07T09:27:35;4.00;;;2.60;;
51616;SDS011;37697;52.588;13.394;2023-05-07T09:32:40;3.70;;;2.30;;
51616;SDS011;37697;52.588;13.394;2023-05-07T09:37:46;2.80;;;2.00;;
51616;SDS011;37697;52.588;13.394;2023-05-07T09:42:51;2.60;;;1.90;;
51616;SDS011;37697;52.588;13.394;2023-05-07T09:47:58;5.20;;;2.30;;
51616;SDS011;37697;52.588;13.394;2023-05-07T09:53:05;2.60;;;1.70;;
51616;SDS011;37697;52.588;13.394;2023-05-07T09:58:13;5.10;;;2.20;;
51616;SDS011;37697;52.588;13.394;2023-05-07T10:03:21;2.60;;;1.80;;
51616;SDS011;37697;52.588;13.394;2023-05-07T10:08:28;3.60;;;2.00;;
51616;SDS011;37697;52.588;13.394;2023-05-07T10:13:35;3.90;;;2.20;;
51616;SDS011;37697;52.588;13.394;2023-05-07T10:18:41;4.70;;;2.00;;
51616;SDS011;37697;52.588;13.394;2023-05-07T10:23:53;2.10;;;1.60;;
51616;SDS011;37697;52.588;13.394;2023-05-07T10:29:04;3.80;;;1.70;;
51616;SDS011;37697;52.588;13.394;2023-05-07T10:34:14;2.40;;;1.60;;
51616;SDS011;37697;52.588;13.394;2023-05-07T10:39:26;2.90;;;1.90;;
51616;SDS011;37697;52.588;13.394;2023-05-07T10:44:32;2.90;;;1.80;;
51616;SDS011;37697;52.588;13.394;2023-05-07T10:49:38;2.30;;;1.50;;
51616;SDS011;37697;52.588;13.394;2023-05-07T10:55:21;3.30;;;1.60;;
51616;SDS011;37697;52.588;13.394;2023-05-07T11:00:42;3.40;;;1.50;;
51616;SDS011;37697;52.588;13.394;2023-05-07T11:05:48;2.60;;;1.40;;
51616;SDS011;37697;52.588;13.394;2023-05-07T11:11:14;3.50;;;1.60;;
51616;SDS011;37697;52.588;13.394;2023-05-07T11:16:20;4.20;;;1.90;;
51616;SDS011;37697;52.588;13.394;2023-05-07T11:21:32;2.60;;;1.70;;
51616;SDS011;37697;52.588;13.394;2023-05-07T11:26:43;2.40;;;1.50;;
51616;SDS011;37697;52.588;13.394;2023-05-07T11:31:50;4.80;;;1.60;;
51616;SDS011;37697;52.588;13.394;2023-05-07T11:36:57;2.70;;;1.50;;
51616;SDS011;37697;52.588;13.394;2023-05-07T11:42:04;3.00;;;1.60;;
51616;SDS011;37697;52.588;13.394;2023-05-07T11:47:10;2.60;;;1.50;;
51616;SDS011;37697;52.588;13.394;2023-05-07T11:52:22;2.60;;;1.50;;
51616;SDS011;37697;52.588;13.394;2023-05-07T11:57:28;2.40;;;1.70;;
51616;SDS011;37697;52.588;13.394;2023-05-07T12:02:34;3.10;;;1.50;;
51616;SDS011;37697;52.588;13.394;2023-05-07T12:07:39;3.00;;;1.50;;
51616;SDS011;37697;52.588;13.394;2023-05-07T12:12:46;2.70;;;1.40;;
51616;SDS011;37697;52.588;13.394;2023-05-07T12:17:52;2.60;;;1.40;;
51616;SDS011;37697;52.588;13.394;2023-05-07T12:22:58;3.50;;;1.80;;
51616;SDS011;37697;52.588;13.394;2023-05-07T12:28:04;2.00;;;1.20;;
51616;SDS011;37697;52.588;13.394;2023-05-07T12:33:11;2.30;;;1.20;;
51616;SDS011;37697;52.588;13.394;2023-05-07T12:38:20;3.90;;;1.70;;
51616;SDS011;37697;52.588;13.394;2023-05-07T12:43:26;5.00;;;1.70;;
51616;SDS011;37697;52.588;13.394;2023-05-07T12:48:33;3.30;;;1.50;;
51616;SDS011;37697;52.588;13.394;2023-05-07T12:53:40;2.60;;;1.20;;
51616;SDS011;37697;52.588;13.394;2023-05-07T12:58:46;2.40;;;1.20;;
51616;SDS011;37697;52.588;13.394;2023-05-07T13:03:53;3.30;;;1.30;;
51616;SDS011;37697;52.588;13.394;2023-05-07T13:08:59;3.50;;;1.30;;
51616;SDS011;37697;52.588;13.394;2023-05-07T13:14:05;1.80;;;1.10;;
51616;SDS011;37697;52.588;13.394;2023-05-07T13:19:10;2.60;;;1.40;;
51616;SDS011;37697;52.588;13.394;2023-05-07T13:24:16;3.10;;;1.30;;
51616;SDS011;37697;52.588;13.394;2023-05-07T13:29:21;3.90;;;1.40;;
51616;SDS011;37697;52.588;13.394;2023-05-07T13:34:33;3.40;;;1.30;;
51616;SDS011;37697;52.588;13.394;2023-05-07T13:39:39;2.20;;;1.10;;
51616;SDS011;37697;52.588;13.394;2023-05-07T13:44:48;2.30;;;1.50;;
51616;SDS011;37697;52.588;13.394;2023-05-07T13:49:53;3.80;;;1.60;;
51616;SDS011;37697;52.588;13.394;2023-05-07T13:54:59;1.90;;;1.40;;
51616;SDS011;37697;52.588;13.394;2023-05-07T14:00:08;3.30;;;1.50;;
51616;SDS011;37697;52.588;13.394;2023-05-07T14:05:16;1.60;;;1.10;;
51616;SDS011;37697;52.588;13.394;2023-05-07T14:10:21;3.20;;;1.30;;
51616;SDS011;37697;52.588;13.394;2023-05-07T14:15:27;2.80;;;1.30;;
51616;SDS011;37697;52.588;13.394;2023-05-07T14:20:33;2.70;;;1.60;;
51616;SDS011;37697;52.588;13.394;2023-05-07T14:25:40;2.80;;;1.30;;
51616;SDS011;37697;52.588;13.394;2023-05-07T14:30:47;2.80;;;1.40;;
51616;SDS011;37697;52.588;13.394;2023-05-07T14:35:53;2.40;;;1.30;;
51616;SDS011;37697;52.588;13.394;2023-05-07T14:40:59;2.20;;;1.30;;
51616;SDS011;37697;52.588;13.394;2023-05-07T14:46:05;4.50;;;1.30;;
51616;SDS011;37697;52.588;13.394;2023-05-07T14:51:10;4.80;;;1.30;;
51616;SDS011;37697;52.588;13.394;2023-05-07T14:56:17;2.90;;;1.10;;
51616;SDS011;37697;52.588;13.394;2023-05-07T15:01:22;1.90;;;1.00;;
51616;SDS011;37697;52.588;13.394;2023-05-07T15:06:29;2.80;;;1.10;;
51616;SDS011;37697;52.588;13.394;2023-05-07T15:11:34;1.60;;;1.10;;
51616;SDS011;37697;52.588;13.394;2023-05-07T15:16:40;2.60;;;1.00;;
51616;SDS011;37697;52.588;13.394;2023-05-07T15:21:45;1.80;;;1.10;;
51616;SDS011;37697;52.588;13.394;2023-05-07T15:26:51;1.90;;;1.00;;
51616;SDS011;37697;52.588;13.394;2023-05-07T15:31:57;2.10;;;1.00;;
51616;SDS011;37697;52.588;13.394;2023-05-07T15:37:03;1.70;;;1.00;;
51616;SDS011;37697;52.588;13.394;2023-05-07T15:42:08;3.00;;;1.10;;
51616;SDS011;37697;52.588;13.394;2023-05-07T15:47:13;2.50;;;1.50;;
51616;SDS011;37697;52.588;13.394;2023-05-07T15:52:19;2.90;;;0.90;;
51616;SDS011;37697;52.588;13.394;2023-05-07T15:57:24;2.50;;;1.30;;
51616;SDS011;37697;52.588;13.394;2023-05-07T16:02:30;2.10;;;1.00;;
51616;SDS011;37697;52.588;13.394;2023-05-07T16:07:36;2.50;;;1.00;;
51616;SDS011;37697;52.588;13.394;2023-05-07T16:12:41;1.50;;;1.00;;
51616;SDS011;37697;52.588;13.394;2023-05-07T16:17:47;1.90;;;1.20;;
51616;SDS011;37697;52.588;13.394;2023-05-07T16:22:54;2.00;;;1.20;;
51616;SDS011;37697;52.588;13.394;2023-05-07T16:28:00;1.90;;;1.20;;
51616;SDS011;37697;52.588;13.394;2023-05-07T16:33:06;3.80;;;1.30;;
51616;SDS011;37697;52.588;13.394;2023-05-07T16:38:11;2.00;;;1.20;;
51616;SDS011;37697;52.588;13.394;2023-05-07T16:43:17;1.70;;;1.00;;
51616;SDS011;37697;52.588;13.394;2023-05-07T16:48:22;2.00;;;1.00;;
51616;SDS011;37697;52.588;13.394;2023-05-07T16:53:28;2.00;;;1.10;;
51616;SDS011;37697;52.588;13.394;2023-05-07T16:58:33;4.20;;;1.40;;
51616;SDS011;37697;52.588;13.394;2023-05-07T17:03:39;1.70;;;1.20;;
51616;SDS011;37697;52.588;13.394;2023-05-07T17:08:44;3.60;;;1.20;;
51616;SDS011;37697;52.588;13.394;2023-05-07T17:13:50;3.70;;;1.40;;
51616;SDS011;37697;52.588;13.394;2023-05-07T17:18:55;3.20;;;1.20;;
51616;SDS011;37697;52.588;13.394;2023-05-07T17:24:00;2.30;;;1.30;;
51616;SDS011;37697;52.588;13.394;2023-05-07T17:29:06;4.00;;;1.50;;
51616;SDS011;37697;52.588;13.394;2023-05-07T17:34:12;2.40;;;1.10;;
51616;SDS011;37697;52.588;13.394;2023-05-07T17:39:18;1.60;;;1.00;;
51616;SDS011;37697;52.588;13.394;2023-05-07T17:44:23;2.10;;;0.90;;
51616;SDS011;37697;52.588;13.394;2023-05-07T17:49:29;2.90;;;1.40;;
51616;SDS011;37697;52.588;13.394;2023-05-07T17:54:34;2.50;;;1.00;;
51616;SDS011;37697;52.588;13.394;2023-05-07T17:59:39;3.20;;;1.20;;
51616;SDS011;37697;52.588;13.394;2023-05-07T18:04:45;2.70;;;1.10;;
51616;SDS011;37697;52.588;13.394;2023-05-07T18:09:50;5.30;;;1.30;;
51616;SDS011;37697;52.588;13.394;2023-05-07T18:14:55;1.30;;;1.00;;
51616;SDS011;37697;52.588;13.394;2023-05-07T18:20:01;1.70;;;1.10;;
51616;SDS011;37697;52.588;13.394;2023-05-07T18:25:09;1.40;;;1.00;;
51616;SDS011;37697;52.588;13.394;2023-05-07T18:30:14;2.50;;;1.10;;
51616;SDS011;37697;52.588;13.394;2023-05-07T18:35:20;1.80;;;1.20;;
51616;SDS011;37697;52.588;13.394;2023-05-07T18:40:25;2.50;;;1.50;;
51616;SDS011;37697;52.588;13.394;2023-05-07T18:45:31;3.30;;;1.60;;
51616;SDS011;37697;52.588;13.394;2023-05-07T18:50:38;2.70;;;1.50;;
51616;SDS011;37697;52.588;13.394;2023-05-07T18:55:48;2.70;;;1.60;;
51616;SDS011;37697;52.588;13.394;2023-05-07T19:00:54;2.30;;;1.20;;
51616;SDS011;37697;52.588;13.394;2023-05-07T19:06:00;3.00;;;1.50;;
51616;SDS011;37697;52.588;13.394;2023-05-07T19:11:06;3.10;;;1.40;;
51616;SDS011;37697;52.588;13.394;2023-05-07T19:16:11;2.40;;;1.50;;
51616;SDS011;37697;52.588;13.394;2023-05-07T19:21:16;3.40;;;1.60;;
51616;SDS011;37697;52.588;13.394;2023-05-07T19:26:22;3.30;;;1.40;;
51616;SDS011;37697;52.588;13.394;2023-05-07T19:31:28;3.20;;;1.70;;
51616;SDS011;37697;52.588;13.394;2023-05-07T19:36:36;2.30;;;1.50;;
51616;SDS011;37697;52.588;13.394;2023-05-07T19:41:41;2.60;;;1.40;;
51616;SDS011;37697;52.588;13.394;2023-05-07T19:46:46;3.20;;;1.50;;
51616;SDS011;37697;52.588;13.394;2023-05-07T19:51:52;2.30;;;1.40;;
51616;SDS011;37697;52.588;13.394;2023-05-07T19:56:57;2.60;;;1.50;;
51616;SDS011;37697;52.588;13.394;2023-05-07T20:02:02;2.80;;;1.40;;
51616;SDS011;37697;52.588;13.394;2023-05-07T20:07:08;4.10;;;1.70;;
51616;SDS011;37697;52.588;13.394;2023-05-07T20:12:13;2.50;;;1.60;;
51616;SDS011;37697;52.588;13.394;2023-05-07T20:17:20;4.20;;;1.70;;
51616;SDS011;37697;52.588;13.394;2023-05-07T20:22:28;2.70;;;1.40;;
51616;SDS011;37697;52.588;13.394;2023-05-07T20:27:36;2.40;;;1.50;;
51616;SDS011;37697;52.588;13.394;2023-05-07T20:32:42;3.90;;;1.90;;
51616;SDS011;37697;52.588;13.394;2023-05-07T20:37:47;2.90;;;1.70;;
51616;SDS011;37697;52.588;13.394;2023-05-07T20:42:53;5.50;;;1.80;;
51616;SDS011;37697;52.588;13.394;2023-05-07T20:47:58;3.40;;;2.00;;
51616;SDS011;37697;52.588;13.394;2023-05-07T20:53:04;3.00;;;1.80;;
51616;SDS011;37697;52.588;13.394;2023-05-07T20:58:09;3.80;;;2.30;;
51616;SDS011;37697;52.588;13.394;2023-05-07T21:03:14;3.60;;;2.30;;
51616;SDS011;37697;52.588;13.394;2023-05-07T21:08:20;5.40;;;2.50;;
51616;SDS011;37697;52.588;13.394;2023-05-07T21:13:26;4.70;;;2.30;;
51616;SDS011;37697;52.588;13.394;2023-05-07T21:18:32;3.40;;;2.20;;
51616;SDS011;37697;52.588;13.394;2023-05-07T21:23:37;5.30;;;2.40;;
51616;SDS011;37697;52.588;13.394;2023-05-07T21:28:42;3.60;;;2.70;;
51616;SDS011;37697;52.588;13.394;2023-05-07T21:33:49;3.50;;;2.70;;
51616;SDS011;37697;52.588;13.394;2023-05-07T21:38:55;5.40;;;2.70;;
51616;SDS011;37697;52.588;13.394;2023-05-07T21:44:01;4.60;;;3.10;;
51616;SDS011;37697;52.588;13.394;2023-05-07T21:49:07;5.30;;;2.80;;
51616;SDS011;37697;52.588;13.394;2023-05-07T21:54:13;5.10;;;2.70;;
51616;SDS011;37697;52.588;13.394;2023-05-07T21:59:18;4.60;;;2.60;;
51616;SDS011;37697;52.588;13.394;2023-05-07T22:04:24;4.00;;;3.10;;
51616;SDS011;37697;52.588;13.394;2023-05-07T22:09:29;5.10;;;2.90;;
51616;SDS011;37697;52.588;13.394;2023-05-07T22:14:34;4.70;;;2.60;;
51616;SDS011;37697;52.588;13.394;2023-05-07T22:19:40;5.50;;;3.10;;
51616;SDS011;37697;52.588;13.394;2023-05-07T22:24:45;6.40;;;3.20;;
51616;SDS011;37697;52.588;13.394;2023-05-07T22:29:50;4.60;;;3.40;;
51616;SDS011;37697;52.588;13.394;2023-05-07T22:34:56;5.10;;;3.10;;
51616;SDS011;37697;52.588;13.394;2023-05-07T22:40:01;3.90;;;3.00;;
51616;SDS011;37697;52.588;13.394;2023-05-07T22:45:09;5.40;;;3.40;;
51616;SDS011;37697;52.588;13.394;2023-05-07T22:50:15;5.30;;;3.00;;
51616;SDS011;37697;52.588;13.394;2023-05-07T22:55:21;6.50;;;3.40;;
51616;SDS011;37697;52.588;13.394;2023-05-07T23:00:27;5.00;;;3.40;;
51616;SDS011;37697;52.588;13.394;2023-05-07T23:05:32;4.90;;;3.10;;
51616;SDS011;37697;52.588;13.394;2023-05-07T23:10:38;5.20;;;3.50;;
51616;SDS011;37697;52.588;13.394;2023-05-07T23:15:43;4.10;;;3.00;;
51616;SDS011;37697;52.588;13.394;2023-05-07T23:20:48;5.30;;;2.90;;
51616;SDS011;37697;52.588;13.394;2023-05-07T23:25:54;5.20;;;3.50;;
51616;SDS011;37697;52.588;13.394;2023-05-07T23:30:59;6.90;;;3.70;;
51616;SDS011;37697;52.588;13.394;2023-05-07T23:36:05;4.60;;;3.40;;
51616;SDS011;37697;52.588;13.394;2023-05-07T23:41:11;4.80;;;3.40;;
51616;SDS011;37697;52.588;13.394;2023-05-07T23:46:16;6.70;;;3.40;;
51616;SDS011;37697;52.588;13.394;2023-05-07T23:51:22;5.10;;;3.40;;
51616;SDS011;37697;52.588;13.394;2023-05-07T23:56:27;5.10;;;3.80;;
